sensor_id;sensor_type;location;lat;lon;timestamp;temperature;humidity
63407;SHT31;49543;45.892;10.838;2023-11-21T06:20:58;7.35;89.75
63407;SHT31;49543;45.892;10.838;2023-11-21T06:23:34;7.33;89.83
63407;SHT31;49543;45.892;10.838;2023-11-21T06:25:59;7.33;89.84
63407;SHT31;49543;45.892;10.838;2023-11-21T06:28:25;7.33;89.94
63407;SHT31;49543;45.892;10.838;2023-11-21T06:30:50;7.32;89.89
63407;SHT31;49543;45.892;10.838;2023-11-21T06:33:16;7.31;89.90
63407;SHT31;49543;45.892;10.838;2023-11-21T06:35:41;7.31;90.12
63407;SHT31;49543;45.892;10.838;2023-11-21T06:38:07;7.33;90.15
63407;SHT31;49543;45.892;10.838;2023-11-21T06:40:35;7.31;90.07
63407;SHT31;49543;45.892;10.838;2023-11-21T06:43:00;7.31;90.18
63407;SHT31;49543;45.892;10.838;2023-11-21T06:45:26;7.29;90.17
63407;SHT31;49543;45.892;10.838;2023-11-21T06:47:51;7.29;90.33
63407;SHT31;49543;45.892;10.838;2023-11-21T06:50:17;7.32;90.42
63407;SHT31;49543;45.892;10.838;2023-11-21T06:52:43;7.35;90.44
63407;SHT31;49543;45.892;10.838;2023-11-21T06:55:08;7.33;90.43
63407;SHT31;49543;45.892;10.838;2023-11-21T06:57:35;7.33;90.47
63407;SHT31;49543;45.892;10.838;2023-11-21T07:00:01;7.35;90.48
63407;SHT31;49543;45.892;10.838;2023-11-21T07:02:27;7.36;90.46
63407;SHT31;49543;45.892;10.838;2023-11-21T07:04:53;7.38;90.46
63407;SHT31;49543;45.892;10.838;2023-11-21T07:07:19;7.39;90.45
63407;SHT31;49543;45.892;10.838;2023-11-21T07:09:44;7.43;90.42
63407;SHT31;49543;45.892;10.838;2023-11-21T07:12:10;7.45;90.46
63407;SHT31;49543;45.892;10.838;2023-11-21T07:14:36;7.49;90.37
63407;SHT31;49543;45.892;10.838;2023-11-21T11:34:29;10.73;79.16
63407;SHT31;49543;45.892;10.838;2023-11-21T11:37:03;10.76;79.21
63407;SHT31;49543;45.892;10.838;2023-11-21T11:39:37;10.76;79.61
63407;SHT31;49543;45.892;10.838;2023-11-21T11:42:12;10.80;79.31
63407;SHT31;49543;45.892;10.838;2023-11-21T11:50:10;10.84;80.03
63407;SHT31;49543;45.892;10.838;2023-11-21T11:52:46;10.89;80.42
63407;SHT31;49543;45.892;10.838;2023-11-21T11:55:13;10.92;82.04
63407;SHT31;49543;45.892;10.838;2023-11-21T11:57:42;10.95;82.07
63407;SHT31;49543;45.892;10.838;2023-11-21T12:00:16;10.95;82.05
63407;SHT31;49543;45.892;10.838;2023-11-21T12:03:02;10.92;79.81
63407;SHT31;49543;45.892;10.838;2023-11-21T12:05:30;10.92;79.74
63407;SHT31;49543;45.892;10.838;2023-11-21T12:08:07;10.95;79.47
63407;SHT31;49543;45.892;10.838;2023-11-21T12:10:37;10.99;79.83
63407;SHT31;49543;45.892;10.838;2023-11-21T12:13:07;10.99;79.86
63407;SHT31;49543;45.892;10.838;2023-11-21T12:15:34;11.00;79.45
63407;SHT31;49543;45.892;10.838;2023-11-21T12:18:00;11.03;79.82
63407;SHT31;49543;45.892;10.838;2023-11-21T12:20:26;11.04;79.84
63407;SHT31;49543;45.892;10.838;2023-11-21T12:22:57;11.04;79.37
63407;SHT31;49543;45.892;10.838;2023-11-21T12:25:29;11.06;78.51
63407;SHT31;49543;45.892;10.838;2023-11-21T12:27:58;11.08;78.82
63407;SHT31;49543;45.892;10.838;2023-11-21T12:30:26;11.13;78.20
63407;SHT31;49543;45.892;10.838;2023-11-21T12:32:55;11.14;78.12
63407;SHT31;49543;45.892;10.838;2023-11-21T12:35:28;11.18;78.25
63407;SHT31;49543;45.892;10.838;2023-11-21T12:37:57;11.18;78.22
63407;SHT31;49543;45.892;10.838;2023-11-21T12:40:22;11.24;78.53
63407;SHT31;49543;45.892;10.838;2023-11-21T12:42:51;11.24;78.99
63407;SHT31;49543;45.892;10.838;2023-11-21T12:47:50;11.28;79.90
63407;SHT31;49543;45.892;10.838;2023-11-21T12:50:19;11.27;80.40
63407;SHT31;49543;45.892;10.838;2023-11-21T12:52:49;11.27;81.15
63407;SHT31;49543;45.892;10.838;2023-11-21T12:55:22;11.25;81.77
63407;SHT31;49543;45.892;10.838;2023-11-21T12:57:52;11.25;83.69
63407;SHT31;49543;45.892;10.838;2023-11-21T13:00:20;11.24;83.73
63407;SHT31;49543;45.892;10.838;2023-11-21T13:02:56;11.21;82.56
63407;SHT31;49543;45.892;10.838;2023-11-21T13:05:32;11.20;82.13
63407;SHT31;49543;45.892;10.838;2023-11-21T13:08:02;11.20;82.74
63407;SHT31;49543;45.892;10.838;2023-11-21T13:10:30;11.20;81.19
63407;SHT31;49543;45.892;10.838;2023-11-21T13:12:57;11.21;80.96
63407;SHT31;49543;45.892;10.838;2023-11-21T13:15:28;11.20;80.36
63407;SHT31;49543;45.892;10.838;2023-11-21T13:17:54;11.23;80.31
63407;SHT31;49543;45.892;10.838;2023-11-21T13:20:21;11.21;80.37
63407;SHT31;49543;45.892;10.838;2023-11-21T13:22:51;11.23;80.89
63407;SHT31;49543;45.892;10.838;2023-11-21T13:25:23;11.24;81.59
63407;SHT31;49543;45.892;10.838;2023-11-21T13:27:48;11.28;82.36
63407;SHT31;49543;45.892;10.838;2023-11-21T13:30:14;11.27;82.28
63407;SHT31;49543;45.892;10.838;2023-11-21T13:32:52;11.28;82.42
63407;SHT31;49543;45.892;10.838;2023-11-21T13:35:19;11.30;82.59
63407;SHT31;49543;45.892;10.838;2023-11-21T13:37:56;11.28;82.26
63407;SHT31;49543;45.892;10.838;2023-11-21T13:40:25;11.31;82.19
63407;SHT31;49543;45.892;10.838;2023-11-21T13:42:55;11.30;82.54
63407;SHT31;49543;45.892;10.838;2023-11-21T13:45:25;11.28;83.10
63407;SHT31;49543;45.892;10.838;2023-11-21T13:47:53;11.28;83.67
63407;SHT31;49543;45.892;10.838;2023-11-21T13:50:23;11.23;83.91
63407;SHT31;49543;45.892;10.838;2023-11-21T13:53:17;11.24;84.28
63407;SHT31;49543;45.892;10.838;2023-11-21T13:56:31;11.23;85.25
63407;SHT31;49543;45.892;10.838;2023-11-21T13:59:17;11.23;85.65
63407;SHT31;49543;45.892;10.838;2023-11-21T14:01:57;11.20;85.66
63407;SHT31;49543;45.892;10.838;2023-11-21T14:04:38;11.21;85.58
63407;SHT31;49543;45.892;10.838;2023-11-21T14:07:26;11.21;85.52
63407;SHT31;49543;45.892;10.838;2023-11-21T14:10:10;11.17;85.31
63407;SHT31;49543;45.892;10.838;2023-11-21T14:12:47;11.20;85.24
63407;SHT31;49543;45.892;10.838;2023-11-21T14:15:12;11.18;85.24
63407;SHT31;49543;45.892;10.838;2023-11-21T14:17:44;11.15;85.28
63407;SHT31;49543;45.892;10.838;2023-11-21T14:20:10;11.14;85.26
63407;SHT31;49543;45.892;10.838;2023-11-21T14:22:41;11.13;85.60
63407;SHT31;49543;45.892;10.838;2023-11-21T14:25:07;11.11;85.96
63407;SHT31;49543;45.892;10.838;2023-11-21T14:27:33;11.08;86.79
63407;SHT31;49543;45.892;10.838;2023-11-21T14:29:58;11.01;86.30
63407;SHT31;49543;45.892;10.838;2023-11-21T14:32:24;10.97;86.11
63407;SHT31;49543;45.892;10.838;2023-11-21T14:34:51;10.97;88.07
63407;SHT31;49543;45.892;10.838;2023-11-21T14:37:17;10.92;89.25
63407;SHT31;49543;45.892;10.838;2023-11-21T14:39:43;10.87;89.69
63407;SHT31;49543;45.892;10.838;2023-11-21T14:42:13;10.83;89.87
63407;SHT31;49543;45.892;10.838;2023-11-21T14:44:40;10.75;88.45
63407;SHT31;49543;45.892;10.838;2023-11-21T14:47:06;10.72;87.85
63407;SHT31;49543;45.892;10.838;2023-11-21T14:49:41;10.72;88.67
63407;SHT31;49543;45.892;10.838;2023-11-21T14:52:21;10.65;89.72
63407;SHT31;49543;45.892;10.838;2023-11-21T14:55:05;10.63;90.08
63407;SHT31;49543;45.892;10.838;2023-11-21T14:57:51;10.56;88.84
63407;SHT31;49543;45.892;10.838;2023-11-21T15:00:20;10.51;88.64
63407;SHT31;49543;45.892;10.838;2023-11-21T15:03:04;10.51;89.28
63407;SHT31;49543;45.892;10.838;2023-11-21T15:05:30;10.48;89.98
63407;SHT31;49543;45.892;10.838;2023-11-21T15:07:56;10.44;89.36
63407;SHT31;49543;45.892;10.838;2023-11-21T15:10:33;10.37;89.34
63407;SHT31;49543;45.892;10.838;2023-11-21T15:13:25;10.38;90.06
63407;SHT31;49543;45.892;10.838;2023-11-21T15:15:53;10.35;89.87
63407;SHT31;49543;45.892;10.838;2023-11-21T15:18:21;10.32;90.16
63407;SHT31;49543;45.892;10.838;2023-11-21T15:20:47;10.30;89.30
63407;SHT31;49543;45.892;10.838;2023-11-21T15:23:13;10.27;89.34
63407;SHT31;49543;45.892;10.838;2023-11-21T15:25:38;10.24;89.61
63407;SHT31;49543;45.892;10.838;2023-11-21T15:28:04;10.21;90.03
63407;SHT31;49543;45.892;10.838;2023-11-21T15:30:31;10.17;90.20
63407;SHT31;49543;45.892;10.838;2023-11-21T15:32:58;10.15;89.85
63407;SHT31;49543;45.892;10.838;2023-11-21T15:35:23;10.07;88.68
63407;SHT31;49543;45.892;10.838;2023-11-21T15:37:49;10.04;88.35
63407;SHT31;49543;45.892;10.838;2023-11-21T15:40:14;10.05;89.08
63407;SHT31;49543;45.892;10.838;2023-11-21T15:42:41;9.98;88.81
63407;SHT31;49543;45.892;10.838;2023-11-21T15:45:07;10.00;89.65
63407;SHT31;49543;45.892;10.838;2023-11-21T15:47:36;9.97;90.06
63407;SHT31;49543;45.892;10.838;2023-11-21T15:50:01;9.91;90.36
63407;SHT31;49543;45.892;10.838;2023-11-21T15:52:29;9.90;90.22
63407;SHT31;49543;45.892;10.838;2023-11-21T15:54:55;9.86;90.33
63407;SHT31;49543;45.892;10.838;2023-11-21T15:57:21;9.83;89.89
63407;SHT31;49543;45.892;10.838;2023-11-21T15:59:47;9.80;89.67
63407;SHT31;49543;45.892;10.838;2023-11-21T16:02:13;9.77;89.44
63407;SHT31;49543;45.892;10.838;2023-11-21T16:04:41;9.73;89.70
63407;SHT31;49543;45.892;10.838;2023-11-21T16:07:08;9.72;90.00
63407;SHT31;49543;45.892;10.838;2023-11-21T16:09:33;9.72;89.92
63407;SHT31;49543;45.892;10.838;2023-11-21T16:12:01;9.69;89.52
63407;SHT31;49543;45.892;10.838;2023-11-21T16:14:32;9.66;89.47
63407;SHT31;49543;45.892;10.838;2023-11-21T16:17:04;9.65;89.67
63407;SHT31;49543;45.892;10.838;2023-11-21T16:19:32;9.63;89.57
63407;SHT31;49543;45.892;10.838;2023-11-21T16:21:58;9.60;89.01
63407;SHT31;49543;45.892;10.838;2023-11-21T16:24:23;9.59;89.09
63407;SHT31;49543;45.892;10.838;2023-11-21T16:26:51;9.53;87.93
63407;SHT31;49543;45.892;10.838;2023-11-21T16:29:17;9.50;88.12
63407;SHT31;49543;45.892;10.838;2023-11-21T16:31:42;9.49;87.92
63407;SHT31;49543;45.892;10.838;2023-11-21T16:34:18;9.46;88.19
63407;SHT31;49543;45.892;10.838;2023-11-21T16:36:45;9.46;88.35
63407;SHT31;49543;45.892;10.838;2023-11-21T16:39:12;9.40;88.31
63407;SHT31;49543;45.892;10.838;2023-11-21T16:41:41;9.40;88.67
63407;SHT31;49543;45.892;10.838;2023-11-21T16:44:18;9.36;88.33
63407;SHT31;49543;45.892;10.838;2023-11-21T16:46:51;9.36;88.16
63407;SHT31;49543;45.892;10.838;2023-11-21T16:49:22;9.31;87.87
63407;SHT31;49543;45.892;10.838;2023-11-21T16:51:49;9.28;87.87
63407;SHT31;49543;45.892;10.838;2023-11-21T17:42:43;8.97;88.07
63407;SHT31;49543;45.892;10.838;2023-11-21T17:45:10;8.96;88.46
63407;SHT31;49543;45.892;10.838;2023-11-21T17:47:37;8.91;87.85
63407;SHT31;49543;45.892;10.838;2023-11-21T17:50:03;8.91;87.65
63407;SHT31;49543;45.892;10.838;2023-11-21T17:52:28;8.84;87.45
63407;SHT31;49543;45.892;10.838;2023-11-21T17:54:54;8.84;87.05
63407;SHT31;49543;45.892;10.838;2023-11-21T17:57:19;8.81;87.58
63407;SHT31;49543;45.892;10.838;2023-11-21T17:59:45;8.81;87.77
63407;SHT31;49543;45.892;10.838;2023-11-21T18:02:12;8.80;87.59
63407;SHT31;49543;45.892;10.838;2023-11-21T18:04:38;8.79;88.05
63407;SHT31;49543;45.892;10.838;2023-11-21T18:07:04;8.77;88.26
63407;SHT31;49543;45.892;10.838;2023-11-21T18:09:32;8.74;88.76
63407;SHT31;49543;45.892;10.838;2023-11-21T18:11:59;8.73;89.01
63407;SHT31;49543;45.892;10.838;2023-11-21T18:14:27;8.72;89.04
63407;SHT31;49543;45.892;10.838;2023-11-21T18:16:52;8.72;87.98
63407;SHT31;49543;45.892;10.838;2023-11-21T18:19:18;8.66;87.52
63407;SHT31;49543;45.892;10.838;2023-11-21T18:21:44;8.67;87.71
63407;SHT31;49543;45.892;10.838;2023-11-21T18:24:10;8.64;88.52
63407;SHT31;49543;45.892;10.838;2023-11-21T18:26:37;8.64;88.20
63407;SHT31;49543;45.892;10.838;2023-11-21T18:29:02;8.62;88.23
63407;SHT31;49543;45.892;10.838;2023-11-21T18:31:28;8.62;88.53
63407;SHT31;49543;45.892;10.838;2023-11-21T18:33:53;8.60;88.65
63407;SHT31;49543;45.892;10.838;2023-11-21T18:36:19;8.59;88.43
63407;SHT31;49543;45.892;10.838;2023-11-21T18:38:48;8.55;88.07
63407;SHT31;49543;45.892;10.838;2023-11-21T18:41:21;8.52;87.63
63407;SHT31;49543;45.892;10.838;2023-11-21T18:43:47;8.49;87.56
63407;SHT31;49543;45.892;10.838;2023-11-21T18:46:13;8.49;88.01
63407;SHT31;49543;45.892;10.838;2023-11-21T18:48:38;8.46;87.50
63407;SHT31;49543;45.892;10.838;2023-11-21T18:51:07;8.42;87.50
63407;SHT31;49543;45.892;10.838;2023-11-21T18:53:33;8.39;88.01
63407;SHT31;49543;45.892;10.838;2023-11-21T18:56:00;8.36;87.90
63407;SHT31;49543;45.892;10.838;2023-11-21T18:58:26;8.36;88.01
63407;SHT31;49543;45.892;10.838;2023-11-21T19:00:52;8.35;87.89
63407;SHT31;49543;45.892;10.838;2023-11-21T19:03:18;8.31;88.28
63407;SHT31;49543;45.892;10.838;2023-11-21T19:05:44;8.32;87.52
63407;SHT31;49543;45.892;10.838;2023-11-21T19:08:10;8.28;87.18
63407;SHT31;49543;45.892;10.838;2023-11-21T19:10:36;8.26;87.62
63407;SHT31;49543;45.892;10.838;2023-11-21T19:13:03;8.26;87.88
63407;SHT31;49543;45.892;10.838;2023-11-21T19:15:32;8.24;88.14
63407;SHT31;49543;45.892;10.838;2023-11-21T19:17:57;8.24;88.45
63407;SHT31;49543;45.892;10.838;2023-11-21T19:20:26;8.24;88.36
63407;SHT31;49543;45.892;10.838;2023-11-21T19:22:51;8.20;88.24
63407;SHT31;49543;45.892;10.838;2023-11-21T19:25:24;8.20;88.03
63407;SHT31;49543;45.892;10.838;2023-11-21T19:27:50;8.14;87.94
63407;SHT31;49543;45.892;10.838;2023-11-21T19:30:16;8.12;86.90
63407;SHT31;49543;45.892;10.838;2023-11-21T19:32:42;8.12;87.17
63407;SHT31;49543;45.892;10.838;2023-11-21T19:35:08;8.12;87.26
63407;SHT31;49543;45.892;10.838;2023-11-21T19:37:35;8.12;87.60
63407;SHT31;49543;45.892;10.838;2023-11-21T19:40:00;8.14;86.44
63407;SHT31;49543;45.892;10.838;2023-11-21T19:42:26;8.11;86.31
63407;SHT31;49543;45.892;10.838;2023-11-21T19:44:51;8.11;86.66
63407;SHT31;49543;45.892;10.838;2023-11-21T19:47:17;8.15;86.53
63407;SHT31;49543;45.892;10.838;2023-11-21T19:49:43;8.12;86.70
63407;SHT31;49543;45.892;10.838;2023-11-21T19:52:08;8.15;87.34
63407;SHT31;49543;45.892;10.838;2023-11-21T19:54:35;8.15;87.79
63407;SHT31;49543;45.892;10.838;2023-11-21T19:57:01;8.11;86.95
63407;SHT31;49543;45.892;10.838;2023-11-21T19:59:30;8.08;87.21
63407;SHT31;49543;45.892;10.838;2023-11-21T20:01:55;8.07;87.46
63407;SHT31;49543;45.892;10.838;2023-11-21T20:04:21;8.05;87.33
63407;SHT31;49543;45.892;10.838;2023-11-21T20:06:46;8.01;87.95
63407;SHT31;49543;45.892;10.838;2023-11-21T20:09:14;8.01;88.11
63407;SHT31;49543;45.892;10.838;2023-11-21T20:11:40;7.97;88.34
63407;SHT31;49543;45.892;10.838;2023-11-21T20:14:06;7.98;88.54
63407;SHT31;49543;45.892;10.838;2023-11-21T20:16:32;7.97;87.86
63407;SHT31;49543;45.892;10.838;2023-11-21T20:18:58;7.95;88.03
63407;SHT31;49543;45.892;10.838;2023-11-21T20:21:23;7.97;88.39
63407;SHT31;49543;45.892;10.838;2023-11-21T20:23:49;7.99;88.28
63407;SHT31;49543;45.892;10.838;2023-11-21T20:26:24;7.97;88.14
63407;SHT31;49543;45.892;10.838;2023-11-21T20:28:52;7.98;87.61
63407;SHT31;49543;45.892;10.838;2023-11-21T20:31:20;7.93;88.20
63407;SHT31;49543;45.892;10.838;2023-11-21T20:33:46;7.94;88.34
63407;SHT31;49543;45.892;10.838;2023-11-21T20:36:13;7.95;88.36
63407;SHT31;49543;45.892;10.838;2023-11-21T20:38:39;7.98;88.57
63407;SHT31;49543;45.892;10.838;2023-11-21T20:41:04;7.98;87.75
63407;SHT31;49543;45.892;10.838;2023-11-21T20:43:31;7.98;88.04
63407;SHT31;49543;45.892;10.838;2023-11-21T20:45:57;7.95;87.92
63407;SHT31;49543;45.892;10.838;2023-11-21T20:48:22;7.95;88.05
63407;SHT31;49543;45.892;10.838;2023-11-21T20:50:51;7.97;88.09
63407;SHT31;49543;45.892;10.838;2023-11-21T20:53:17;7.93;87.54
63407;SHT31;49543;45.892;10.838;2023-11-21T20:55:42;7.90;86.27
63407;SHT31;49543;45.892;10.838;2023-11-21T20:58:10;7.88;86.68
63407;SHT31;49543;45.892;10.838;2023-11-21T21:00:35;7.80;86.27
63407;SHT31;49543;45.892;10.838;2023-11-21T21:03:01;7.77;86.84
63407;SHT31;49543;45.892;10.838;2023-11-21T21:05:27;7.77;86.72
63407;SHT31;49543;45.892;10.838;2023-11-21T21:07:53;7.77;86.10
63407;SHT31;49543;45.892;10.838;2023-11-21T21:10:22;7.77;86.11
63407;SHT31;49543;45.892;10.838;2023-11-21T21:12:48;7.79;86.18
63407;SHT31;49543;45.892;10.838;2023-11-21T21:15:15;7.79;87.09
63407;SHT31;49543;45.892;10.838;2023-11-21T21:17:41;7.80;87.51
63407;SHT31;49543;45.892;10.838;2023-11-21T21:20:07;7.80;87.36
63407;SHT31;49543;45.892;10.838;2023-11-21T21:22:33;7.84;87.20
63407;SHT31;49543;45.892;10.838;2023-11-21T21:24:59;7.83;87.94
63407;SHT31;49543;45.892;10.838;2023-11-21T21:27:24;7.79;86.68
63407;SHT31;49543;45.892;10.838;2023-11-21T21:29:51;7.73;87.01
63407;SHT31;49543;45.892;10.838;2023-11-21T21:32:17;7.71;87.92
63407;SHT31;49543;45.892;10.838;2023-11-21T21:34:42;7.73;88.18
63407;SHT31;49543;45.892;10.838;2023-11-21T21:37:08;7.73;88.33
63407;SHT31;49543;45.892;10.838;2023-11-21T21:39:33;7.76;88.13
63407;SHT31;49543;45.892;10.838;2023-11-21T21:41:59;7.71;87.30
63407;SHT31;49543;45.892;10.838;2023-11-21T21:44:24;7.66;86.92
63407;SHT31;49543;45.892;10.838;2023-11-21T21:46:49;7.70;87.05
63407;SHT31;49543;45.892;10.838;2023-11-21T21:49:15;7.70;87.43
63407;SHT31;49543;45.892;10.838;2023-11-21T21:51:40;7.67;87.65
63407;SHT31;49543;45.892;10.838;2023-11-21T21:54:06;7.67;88.07
63407;SHT31;49543;45.892;10.838;2023-11-21T21:56:32;7.69;88.55
63407;SHT31;49543;45.892;10.838;2023-11-21T21:58:58;7.66;88.18
63407;SHT31;49543;45.892;10.838;2023-11-21T22:01:23;7.66;87.73
63407;SHT31;49543;45.892;10.838;2023-11-21T22:03:50;7.63;86.74
63407;SHT31;49543;45.892;10.838;2023-11-21T22:06:17;7.62;86.74
63407;SHT31;49543;45.892;10.838;2023-11-21T22:08:43;7.60;87.74
63407;SHT31;49543;45.892;10.838;2023-11-21T22:11:08;7.58;87.06
63407;SHT31;49543;45.892;10.838;2023-11-21T22:13:34;7.53;87.11
63407;SHT31;49543;45.892;10.838;2023-11-21T22:15:59;7.49;87.56
63407;SHT31;49543;45.892;10.838;2023-11-21T22:18:25;7.43;87.42
63407;SHT31;49543;45.892;10.838;2023-11-21T22:20:50;7.42;87.53
63407;SHT31;49543;45.892;10.838;2023-11-21T22:23:16;7.39;87.25
63407;SHT31;49543;45.892;10.838;2023-11-21T22:25:42;7.39;87.37
63407;SHT31;49543;45.892;10.838;2023-11-21T22:28:08;7.41;87.98
63407;SHT31;49543;45.892;10.838;2023-11-21T22:30:33;7.31;87.57
63407;SHT31;49543;45.892;10.838;2023-11-21T22:32:59;7.28;87.79
63407;SHT31;49543;45.892;10.838;2023-11-21T22:35:25;7.23;88.16
63407;SHT31;49543;45.892;10.838;2023-11-21T22:37:51;7.21;87.97
63407;SHT31;49543;45.892;10.838;2023-11-21T22:40:17;7.19;87.57
63407;SHT31;49543;45.892;10.838;2023-11-21T22:42:44;7.18;88.20
63407;SHT31;49543;45.892;10.838;2023-11-21T22:45:10;7.18;88.26
63407;SHT31;49543;45.892;10.838;2023-11-21T22:47:35;7.19;88.29
63407;SHT31;49543;45.892;10.838;2023-11-21T22:50:01;7.22;88.03
63407;SHT31;49543;45.892;10.838;2023-11-21T22:52:27;7.22;88.11
63407;SHT31;49543;45.892;10.838;2023-11-21T22:54:52;7.21;88.34
63407;SHT31;49543;45.892;10.838;2023-11-21T22:57:18;7.19;87.57
63407;SHT31;49543;45.892;10.838;2023-11-21T22:59:44;7.18;87.64
63407;SHT31;49543;45.892;10.838;2023-11-21T23:02:11;7.16;87.97
63407;SHT31;49543;45.892;10.838;2023-11-21T23:04:37;7.15;87.62
63407;SHT31;49543;45.892;10.838;2023-11-21T23:07:03;7.14;88.15
63407;SHT31;49543;45.892;10.838;2023-11-21T23:09:29;7.12;88.41
